createdAt,value
2019-01-29T00:02:41.076Z,73.53
2019-01-29T00:07:42.664Z,73.55
2019-01-29T00:12:44.265Z,73.61
2019-01-29T00:17:46.283Z,73.57
2019-01-29T00:22:47.844Z,73.61
2019-01-29T00:27:49.420Z,73.61
2019-01-29T00:32:51.102Z,73.76
2019-01-29T00:37:52.788Z,73.75
2019-01-29T00:42:54.404Z,73.77
2019-01-29T00:47:55.988Z,73.77
2019-01-29T00:52:57.659Z,73.74
2019-01-29T00:57:59.348Z,73.77
2019-01-29T01:03:01.120Z,73.80
2019-01-29T01:08:03.013Z,73.69
2019-01-29T01:13:04.694Z,73.69
2019-01-29T01:18:06.378Z,73.81
2019-01-29T01:23:08.170Z,73.83
2019-01-29T01:28:09.752Z,73.95
2019-01-29T01:33:11.362Z,74.12
2019-01-29T01:38:12.950Z,74.26
2019-01-29T01:43:14.534Z,74.58
2019-01-29T01:48:16.115Z,74.67
2019-01-29T01:53:17.808Z,74.87
2019-01-29T01:58:19.373Z,74.96
2019-01-29T02:03:20.924Z,75.05
2019-01-29T02:08:22.501Z,75.33
2019-01-29T02:13:24.082Z,75.50
2019-01-29T02:18:25.649Z,75.80
2019-01-29T02:23:27.313Z,75.79
2019-01-29T02:28:29.158Z,75.97
2019-01-29T02:33:30.717Z,76.08
2019-01-29T02:38:32.300Z,76.15
2019-01-29T02:43:33.865Z,76.12
2019-01-29T02:48:35.449Z,76.30
2019-01-29T02:53:37.005Z,76.39
2019-01-29T02:58:38.557Z,76.25
2019-01-29T03:03:40.163Z,76.37
2019-01-29T03:08:41.718Z,76.39
2019-01-29T03:13:43.295Z,76.50
2019-01-29T03:18:44.861Z,76.79
2019-01-29T03:23:46.537Z,77.01
2019-01-29T03:28:48.285Z,76.96
2019-01-29T03:33:49.958Z,76.94
2019-01-29T03:38:51.535Z,76.82
2019-01-29T03:43:53.239Z,77.02
2019-01-29T03:48:54.824Z,77.21
2019-01-29T03:53:56.430Z,77.16
2019-01-29T03:58:58.009Z,77.11
2019-01-29T04:03:59.710Z,77.16
2019-01-29T04:09:01.505Z,77.17
2019-01-29T04:14:03.484Z,77.30
2019-01-29T04:19:05.171Z,77.27
2019-01-29T04:24:06.756Z,77.34
2019-01-29T04:29:08.339Z,77.22
2019-01-29T04:34:09.944Z,77.23
2019-01-29T04:39:11.549Z,77.39
2019-01-29T04:44:13.220Z,77.42
2019-01-29T04:49:14.899Z,77.42
2019-01-29T04:54:16.476Z,77.48
2019-01-29T04:59:18.046Z,77.40
2019-01-29T05:04:19.730Z,77.21
2019-01-29T05:09:21.333Z,77.40
2019-01-29T05:14:23.018Z,77.41
2019-01-29T05:19:24.604Z,77.35
2019-01-29T05:24:26.209Z,77.45
2019-01-29T05:29:27.784Z,77.52
2019-01-29T05:34:29.381Z,77.50
2019-01-29T05:39:30.958Z,77.55
2019-01-29T05:44:32.564Z,77.46
2019-01-29T05:49:34.153Z,77.57
2019-01-29T05:54:35.741Z,77.52
2019-01-29T05:59:37.308Z,77.57
2019-01-29T06:04:38.898Z,77.48
2019-01-29T06:09:40.481Z,77.45
2019-01-29T06:14:42.063Z,77.52
2019-01-29T06:19:43.644Z,77.54
2019-01-29T06:24:45.250Z,77.51
2019-01-29T06:29:46.833Z,77.55
2019-01-29T06:34:48.417Z,77.46
2019-01-29T06:39:50.011Z,77.63
2019-01-29T06:44:51.685Z,77.60
2019-01-29T06:49:53.267Z,77.58
2019-01-29T06:54:54.876Z,77.61
2019-01-29T06:59:56.466Z,77.52
2019-01-29T07:04:58.072Z,77.38
2019-01-29T07:09:59.640Z,77.46
2019-01-29T07:15:01.238Z,77.48
2019-01-29T07:20:06.809Z,77.55
2019-01-29T07:25:11.182Z,77.45
2019-01-29T07:30:13.455Z,77.48
2019-01-29T07:35:15.141Z,77.43
2019-01-29T07:40:16.834Z,77.47
2019-01-29T07:45:18.694Z,77.44
2019-01-29T07:50:20.466Z,77.26
2019-01-29T07:55:22.052Z,77.20
2019-01-29T08:00:23.735Z,77.03
2019-01-29T08:05:25.306Z,77.00
2019-01-29T08:10:26.989Z,76.91
2019-01-29T08:15:28.677Z,76.85
2019-01-29T08:20:30.471Z,76.87
2019-01-29T08:25:32.068Z,76.68
2019-01-29T08:30:33.668Z,76.41
2019-01-29T08:35:35.448Z,76.05
2019-01-29T08:40:37.152Z,76.22
2019-01-29T08:45:38.751Z,76.29
2019-01-29T08:50:40.324Z,76.16
2019-01-29T08:55:41.874Z,76.07
2019-01-29T09:00:43.434Z,75.90
2019-01-29T09:05:45.010Z,75.69
2019-01-29T09:10:46.683Z,75.84
2019-01-29T09:15:48.261Z,75.74
2019-01-29T09:20:49.932Z,75.91
2019-01-29T09:25:51.647Z,75.37
2019-01-29T09:30:53.327Z,75.01
2019-01-29T09:35:54.909Z,74.92
2019-01-29T09:40:56.563Z,74.70
2019-01-29T09:45:58.249Z,74.66
2019-01-29T09:50:59.819Z,74.59
2019-01-29T09:56:01.432Z,74.52
2019-01-29T10:01:03.225Z,74.66
2019-01-29T10:06:04.924Z,74.71
2019-01-29T10:11:06.515Z,74.90
2019-01-29T10:16:08.079Z,74.84
2019-01-29T10:21:09.768Z,74.89
2019-01-29T10:26:11.312Z,74.98
2019-01-29T10:31:12.966Z,75.15
2019-01-29T10:36:14.621Z,75.17
2019-01-29T10:41:16.181Z,75.19
2019-01-29T10:46:17.880Z,75.20
2019-01-29T10:51:19.582Z,75.12
2019-01-29T10:56:21.248Z,75.12
2019-01-29T11:01:23.063Z,75.24
2019-01-29T11:06:24.604Z,75.01
2019-01-29T11:11:26.294Z,74.79
2019-01-29T11:16:27.872Z,74.45
2019-01-29T11:21:29.439Z,74.08
2019-01-29T11:26:31.117Z,73.48
2019-01-29T11:31:32.880Z,73.23
2019-01-29T11:36:34.550Z,73.02
2019-01-29T11:46:53.797Z,71.49
2019-01-29T11:51:55.361Z,70.97
2019-01-29T11:56:56.944Z,72.05
2019-01-29T12:01:58.634Z,72.76
2019-01-29T12:07:00.186Z,73.35
2019-01-29T12:12:01.762Z,73.50
2019-01-29T12:17:03.569Z,72.99
2019-01-29T12:22:05.223Z,72.90
2019-01-29T12:27:07.029Z,73.16
2019-01-29T12:32:08.517Z,73.59
2019-01-29T12:37:10.083Z,73.53
2019-01-29T12:42:11.681Z,73.58
2019-01-29T12:47:13.440Z,73.64
2019-01-29T12:52:21.348Z,73.61
2019-01-29T12:57:23.010Z,73.40
2019-01-29T13:02:24.685Z,73.06
2019-01-29T13:07:26.341Z,72.97
2019-01-29T13:12:27.953Z,73.09
2019-01-29T13:17:29.505Z,72.90
2019-01-29T13:22:31.065Z,72.79
2019-01-29T13:27:32.650Z,72.71
2019-01-29T13:32:34.323Z,72.65
2019-01-29T13:37:35.890Z,72.98
2019-01-29T13:42:37.456Z,73.05
2019-01-29T13:47:39.028Z,73.21
2019-01-29T13:52:40.592Z,73.36
2019-01-29T13:57:42.429Z,73.16
2019-01-29T14:02:44.116Z,72.70
2019-01-29T14:07:45.687Z,72.31
2019-01-29T14:12:47.523Z,72.16
2019-01-29T14:17:49.182Z,72.36
2019-01-29T14:22:50.862Z,72.64
2019-01-29T14:27:52.682Z,73.01
2019-01-29T14:32:54.374Z,73.34
2019-01-29T14:38:47.038Z,73.20
2019-01-29T14:43:51.396Z,73.00
2019-01-29T14:48:56.117Z,72.98
2019-01-29T14:53:57.809Z,72.80
2019-01-29T14:58:59.413Z,72.83
2019-01-29T15:04:00.999Z,72.80
2019-01-29T15:09:06.587Z,72.88
2019-01-29T15:14:08.433Z,72.98
2019-01-29T15:19:13.253Z,73.03
2019-01-29T15:24:14.889Z,73.16
2019-01-29T15:29:16.485Z,73.29
2019-01-29T15:34:18.332Z,73.38
2019-01-29T15:39:20.039Z,73.34
2019-01-29T15:44:21.763Z,73.23
2019-01-29T15:49:23.495Z,73.15
2019-01-29T15:54:25.196Z,73.19
2019-01-29T15:59:26.801Z,73.29
2019-01-29T16:04:28.390Z,73.14
2019-01-29T16:09:30.131Z,73.13
2019-01-29T16:14:31.728Z,73.16
2019-01-29T16:19:33.370Z,73.08
2019-01-29T16:24:34.968Z,72.95
2019-01-29T16:29:36.562Z,72.94
2019-01-29T16:34:38.174Z,73.03
2019-01-29T16:39:39.903Z,72.94
2019-01-29T16:44:41.584Z,72.82
2019-01-29T16:49:43.208Z,72.87
2019-01-29T16:54:45.248Z,72.87
2019-01-29T16:59:47.022Z,72.75
2019-01-29T17:04:48.813Z,72.80
2019-01-29T17:09:50.395Z,72.63
2019-01-29T17:14:51.998Z,72.58
2019-01-29T17:19:53.665Z,72.71
2019-01-29T17:24:55.256Z,72.57
2019-01-29T17:29:56.908Z,72.62
2019-01-29T17:34:58.502Z,72.56
2019-01-29T17:40:00.272Z,72.68
2019-01-29T17:45:01.946Z,72.68
2019-01-29T17:50:06.062Z,72.66
2019-01-29T17:55:09.061Z,72.52
2019-01-29T18:00:16.336Z,72.49
2019-01-29T18:05:18.017Z,72.61
2019-01-29T18:10:19.814Z,72.76
2019-01-29T18:15:23.673Z,72.69
2019-01-29T18:20:25.502Z,72.67
2019-01-29T18:25:27.271Z,72.67
2019-01-29T18:30:30.742Z,72.62
2019-01-29T18:35:32.557Z,72.59
2019-01-29T18:40:43.517Z,72.67
2019-01-29T18:45:45.200Z,72.61
2019-01-29T18:50:48.342Z,72.54
2019-01-29T18:55:50.050Z,72.62
2019-01-29T19:00:54.851Z,72.58
2019-01-29T19:05:55.447Z,72.58
2019-01-29T19:10:57.180Z,72.58
2019-01-29T19:15:58.773Z,72.53
2019-01-29T19:21:00.451Z,72.60
2019-01-29T19:26:02.209Z,72.66
2019-01-29T19:31:04.964Z,72.45
2019-01-29T19:36:06.707Z,72.26
2019-01-29T19:41:08.277Z,72.30
2019-01-29T19:46:10.021Z,72.39
2019-01-29T19:51:11.610Z,72.35
2019-01-29T19:56:13.205Z,72.48
2019-01-29T20:01:15.084Z,72.35
2019-01-29T20:06:16.795Z,72.26
2019-01-29T20:11:18.417Z,72.16
2019-01-29T20:16:20.035Z,72.02
2019-01-29T20:21:21.615Z,71.96
2019-01-29T20:26:23.320Z,72.03
2019-01-29T20:31:24.918Z,72.01
2019-01-29T20:36:26.496Z,71.94
2019-01-29T20:41:28.212Z,72.04
2019-01-29T20:46:29.904Z,72.02
2019-01-29T20:51:31.499Z,72.02
2019-01-29T20:56:33.090Z,72.04
2019-01-29T21:01:34.792Z,72.12
2019-01-29T21:06:36.488Z,72.06
2019-01-29T21:11:38.195Z,72.20
2019-01-29T21:16:39.799Z,71.98
2019-01-29T21:21:41.388Z,71.96
2019-01-29T21:26:42.965Z,72.01
2019-01-29T21:31:44.550Z,72.00
2019-01-29T21:36:46.463Z,71.88
2019-01-29T21:41:48.061Z,71.82
2019-01-29T21:46:49.661Z,71.82
2019-01-29T21:51:51.448Z,71.82
2019-01-29T21:56:53.035Z,71.88
2019-01-29T22:01:54.600Z,71.82
2019-01-29T22:06:56.321Z,71.81
2019-01-29T22:11:57.928Z,71.80
2019-01-29T22:16:59.561Z,71.86
2019-01-29T22:22:01.259Z,71.82
2019-01-29T22:27:03.101Z,71.87
2019-01-29T22:32:06.386Z,71.87
2019-01-29T22:37:08.225Z,71.89
2019-01-29T22:42:09.954Z,71.90
2019-01-29T22:47:11.561Z,72.08
2019-01-29T22:52:13.185Z,72.06
2019-01-29T22:57:14.932Z,72.05
2019-01-29T23:02:16.623Z,72.06
2019-01-29T23:07:21.438Z,72.05
2019-01-29T23:12:23.109Z,71.89
2019-01-29T23:17:24.681Z,71.99
2019-01-29T23:22:26.483Z,71.95
2019-01-29T23:27:28.044Z,71.92
2019-01-29T23:32:29.747Z,71.94
2019-01-29T23:37:31.417Z,72.08
2019-01-29T23:42:32.992Z,71.97
2019-01-29T23:47:34.566Z,71.98
2019-01-29T23:52:36.124Z,71.80
2019-01-29T23:57:37.776Z,71.74
